Terminal Aerodrome Forecast
Issued by NWS Wilmington, NC

Home | Current Version | Previous Version | Text Only | Print | Product List | Glossary On
Versions: 1 2 3 4 5 6 7 8 9 10 11 12 13 14 15 16
000
FTUS42 KILM 311100
TAFFLO
TAF
KFLO 311120Z 3112/0112 03004KT P6SM SCT050
     FM311400 02008KT P6SM SCT045
     FM311800 35007KT P6SM SCT050 BKN120
     FM010500 27005KT 6SM -SHRA BKN035
     FM011000 30010G18KT P6SM VCSH SCT035 BKN150=

USA.gov is the U.S. government's official web portal to all federal, state and local government web resources and services.